Time;durP1;ratioP1;P1;durP2;ratioP2;P2;SDS_P1;SDS_P2;PMS_P1;PMS_P2;Temp;Humidity;BMP_temperature;BMP_pressure;BME280_temperature;BME280_humidity;BME280_pressure;Samples;Min_cycle;Max_cycle;Signal;HPM_P1;HPM_P2
2022/12/20 00:01:52;;;;;;;11.43;8.23;;;8.50;99.90;;;;;;5035683;28;20495;-69
2022/12/20 00:04:17;;;;;;;10.95;8.20;;;8.60;99.90;;;;;;5035945;28;20052;-69
2022/12/20 00:06:43;;;;;;;13.25;8.23;;;8.50;99.90;;;;;;5035453;28;20041;-69
2022/12/20 00:09:10;;;;;;;10.05;7.78;;;8.50;99.90;;;;;;5035086;28;20072;-69
2022/12/20 00:11:38;;;;;;;11.02;7.63;;;8.40;99.90;;;;;;5036070;28;20053;-69
2022/12/20 00:14:04;;;;;;;8.98;6.95;;;8.40;99.90;;;;;;5035882;28;20440;-69
2022/12/20 00:16:30;;;;;;;12.05;7.43;;;8.40;99.90;;;;;;5035214;28;20049;-69
2022/12/20 00:18:58;;;;;;;10.07;7.28;;;8.40;99.90;;;;;;5035539;28;20056;-69
2022/12/20 00:21:24;;;;;;;9.65;7.13;;;8.40;99.90;;;;;;5035527;28;20385;-69
2022/12/20 00:23:51;;;;;;;9.55;7.10;;;8.50;99.90;;;;;;5034956;28;20116;-69
2022/12/20 00:26:19;;;;;;;9.52;7.35;;;8.50;99.90;;;;;;5034525;28;20051;-69
2022/12/20 00:28:46;;;;;;;10.15;7.53;;;8.50;99.90;;;;;;5034945;28;20053;-69
2022/12/20 00:31:14;;;;;;;10.38;7.60;;;8.50;99.90;;;;;;5035005;28;20045;-69
2022/12/20 00:33:40;;;;;;;10.70;7.45;;;8.80;99.90;;;;;;5035026;28;20053;-68
2022/12/20 00:36:07;;;;;;;12.05;6.78;;;8.50;99.90;;;;;;5000182;28;20057;-69
2022/12/20 00:38:33;;;;;;;9.75;7.28;;;8.50;99.90;;;;;;5034556;28;20100;-69
2022/12/20 00:41:10;;;;;;;8.55;6.35;;;8.50;99.90;;;;;;5034940;28;20474;-69
2022/12/20 00:43:36;;;;;;;10.85;6.80;;;8.50;99.90;;;;;;5035414;28;20441;-69
2022/12/20 00:46:03;;;;;;;10.65;6.90;;;8.60;99.90;;;;;;5035131;28;20133;-69
2022/12/20 00:48:30;;;;;;;10.20;6.80;;;8.50;99.90;;;;;;5035133;28;20041;-69
2022/12/20 00:51:07;;;;;;;8.85;6.47;;;8.80;99.90;;;;;;5000945;28;20046;-69
2022/12/20 00:53:33;;;;;;;10.57;6.60;;;8.60;99.90;;;;;;5034199;28;20041;-69
2022/12/20 00:55:59;;;;;;;9.27;7.00;;;8.60;99.90;;;;;;5034972;28;20077;-69
2022/12/20 00:58:25;;;;;;;9.80;6.78;;;8.60;99.90;;;;;;5035068;28;20438;-69
2022/12/20 01:00:51;;;;;;;9.52;6.50;;;8.50;99.90;;;;;;5034859;28;20050;-69
2022/12/20 01:03:17;;;;;;;12.27;6.72;;;8.50;99.90;;;;;;5017473;28;20049;-69
2022/12/20 01:05:56;;;;;;;8.68;6.70;;;8.50;99.90;;;;;;5035599;28;20357;-69
2022/12/20 01:08:23;;;;;;;9.40;6.90;;;8.50;99.90;;;;;;5034224;28;20041;-68
2022/12/20 01:11:22;;;;;;;9.45;6.25;;;8.50;99.90;;;;;;5034690;28;20037;-69
2022/12/20 01:13:51;;;;;;;10.73;6.38;;;8.50;99.90;;;;;;4981471;28;20053;-69
2022/12/20 01:16:21;;;;;;;10.93;6.65;;;8.50;99.90;;;;;;5034484;28;20045;-69
2022/12/20 01:18:48;;;;;;;10.27;6.32;;;8.50;99.90;;;;;;5034959;28;20045;-69
2022/12/20 01:21:16;;;;;;;9.63;6.55;;;8.50;99.90;;;;;;5034539;28;20049;-69
2022/12/20 01:23:42;;;;;;;8.27;6.20;;;8.50;99.90;;;;;;5034505;28;20049;-69
2022/12/20 01:26:11;;;;;;;11.63;6.40;;;8.60;99.90;;;;;;5034303;28;20045;-69
2022/12/20 01:28:40;;;;;;;8.23;6.00;;;8.60;99.90;;;;;;5034805;28;20048;-69
2022/12/20 01:31:10;;;;;;;7.78;5.90;;;8.60;99.90;;;;;;5034680;28;20056;-69
2022/12/20 01:33:36;;;;;;;8.48;6.03;;;8.60;99.90;;;;;;5034687;28;20103;-69
2022/12/20 01:36:05;;;;;;;11.82;6.20;;;8.60;99.90;;;;;;5034714;28;20041;-69
2022/12/20 01:38:32;;;;;;;7.75;5.82;;;8.60;99.90;;;;;;5016882;28;20501;-69
2022/12/20 01:40:58;;;;;;;7.47;5.93;;;8.60;99.90;;;;;;5034643;28;20077;-69
2022/12/20 01:43:25;;;;;;;7.82;6.28;;;8.50;99.90;;;;;;5017330;28;20064;-69
2022/12/20 01:45:51;;;;;;;9.05;6.40;;;8.50;99.90;;;;;;5036915;28;20045;-69
2022/12/20 01:48:23;;;;;;;9.30;5.90;;;8.50;99.90;;;;;;5020831;28;20085;-69
2022/12/20 01:50:50;;;;;;;9.15;5.72;;;8.60;99.90;;;;;;5037882;28;20492;-69
2022/12/20 01:53:17;;;;;;;9.45;6.25;;;8.60;99.90;;;;;;5037552;28;20064;-69
2022/12/20 01:55:46;;;;;;;9.02;6.07;;;8.60;99.90;;;;;;5037729;28;20041;-69
2022/12/20 01:58:13;;;;;;;8.82;5.70;;;8.70;99.90;;;;;;5037599;28;20148;-69
2022/12/20 02:00:38;;;;;;;7.57;5.35;;;8.60;99.90;;;;;;5038309;28;20049;-69
2022/12/20 02:03:08;;;;;;;9.13;6.28;;;8.50;99.90;;;;;;5037766;28;20056;-69
2022/12/20 02:05:40;;;;;;;8.90;6.22;;;8.50;99.90;;;;;;5037676;28;20046;-69
2022/12/20 02:08:07;;;;;;;6.32;5.40;;;8.60;99.90;;;;;;5037532;28;20045;-70
2022/12/20 02:11:04;;;;;;;11.60;6.32;;;8.60;99.90;;;;;;5037689;28;20358;-69
2022/12/20 02:13:48;;;;;;;9.45;5.60;;;8.50;99.90;;;;;;5037358;28;20049;-69
2022/12/20 02:16:25;;;;;;;8.63;5.70;;;8.50;99.90;;;;;;5020398;28;20413;-69
2022/12/20 02:18:55;;;;;;;8.82;5.47;;;8.60;99.90;;;;;;5037576;28;20045;-68
2022/12/20 02:21:41;;;;;;;8.35;6.10;;;8.80;99.90;;;;;;5019302;28;20045;-69
2022/12/20 02:24:34;;;;;;;7.63;5.35;;;8.60;99.90;;;;;;5037351;28;20077;-69
2022/12/20 02:27:12;;;;;;;7.55;5.65;;;8.60;99.90;;;;;;5036666;28;20081;-68
2022/12/20 02:29:59;;;;;;;9.65;6.35;;;8.70;99.90;;;;;;5036970;28;20037;-70
2022/12/20 02:32:54;;;;;;;7.93;5.60;;;8.70;99.90;;;;;;5036952;28;20450;-69
2022/12/20 02:35:24;;;;;;;9.48;6.03;;;8.70;99.90;;;;;;5026237;28;20151;-70
2022/12/20 02:37:56;;;;;;;9.82;5.80;;;8.70;99.90;;;;;;5036716;28;20049;-69
2022/12/20 02:40:40;;;;;;;7.53;5.50;;;8.80;99.90;;;;;;5036478;28;20053;-70
2022/12/20 02:46:00;;;;;;;7.32;5.60;;;8.70;99.90;;;;;;4999480;28;20049;-69
2022/12/20 02:48:31;;;;;;;8.05;5.28;;;8.70;99.90;;;;;;5037051;28;20053;-69
2022/12/20 02:50:59;;;;;;;11.00;5.68;;;8.70;99.90;;;;;;5019943;28;20124;-69
2022/12/20 02:53:25;;;;;;;8.45;5.75;;;8.70;99.90;;;;;;5019505;28;20533;-69
2022/12/20 02:56:05;;;;;;;7.47;5.55;;;8.70;99.90;;;;;;5035672;28;20042;-69
2022/12/20 02:58:38;;;;;;;8.57;6.47;;;8.70;99.90;;;;;;5029612;28;20069;-69
2022/12/20 03:01:10;;;;;;;10.05;6.18;;;8.90;99.90;;;;;;5036505;28;20050;-69
2022/12/20 03:03:37;;;;;;;10.05;5.95;;;8.80;99.90;;;;;;5036050;28;20125;-69
2022/12/20 03:06:02;;;;;;;8.70;6.45;;;8.70;99.90;;;;;;5036814;28;20354;-69
2022/12/20 03:08:29;;;;;;;8.70;6.10;;;8.70;99.90;;;;;;5036573;28;20141;-69
2022/12/20 03:10:55;;;;;;;8.93;6.75;;;8.80;99.90;;;;;;5036658;28;20120;-69
2022/12/20 03:13:23;;;;;;;13.70;7.50;;;8.60;99.90;;;;;;5036554;28;20049;-69
2022/12/20 03:15:49;;;;;;;12.93;7.55;;;8.70;99.90;;;;;;5036085;28;20052;-69
2022/12/20 03:18:15;;;;;;;11.18;7.43;;;8.70;99.90;;;;;;5035940;28;20049;-70
2022/12/20 03:20:40;;;;;;;10.45;7.03;;;8.70;99.90;;;;;;5036301;28;20136;-70
2022/12/20 03:23:06;;;;;;;9.60;6.88;;;8.70;99.90;;;;;;5036398;28;20137;-70
2022/12/20 03:25:32;;;;;;;13.55;8.25;;;8.70;99.90;;;;;;5036464;28;20465;-69
2022/12/20 03:27:57;;;;;;;12.50;7.80;;;8.70;99.90;;;;;;5018987;28;20437;-69
2022/12/20 03:30:23;;;;;;;12.27;7.45;;;8.70;99.90;;;;;;5036722;28;20052;-69
2022/12/20 03:32:49;;;;;;;9.82;7.38;;;8.60;99.90;;;;;;5035655;28;20055;-69
2022/12/20 03:35:14;;;;;;;10.05;7.57;;;8.60;99.90;;;;;;5035745;28;20045;-69
2022/12/20 03:37:40;;;;;;;11.05;8.15;;;8.60;99.90;;;;;;5035963;28;20041;-69
2022/12/20 03:40:07;;;;;;;10.23;7.60;;;8.60;99.90;;;;;;5035985;28;20045;-69
2022/12/20 03:42:33;;;;;;;10.95;7.53;;;8.60;99.90;;;;;;5035788;28;20085;-69
2022/12/20 03:44:58;;;;;;;13.63;8.02;;;8.60;99.90;;;;;;5036543;28;20081;-69
2022/12/20 03:47:24;;;;;;;12.05;7.80;;;8.60;99.90;;;;;;5018104;28;20083;-69
2022/12/20 03:49:50;;;;;;;12.73;8.07;;;8.80;99.90;;;;;;5035935;28;20038;-69
2022/12/20 03:52:16;;;;;;;11.77;8.10;;;8.60;99.90;;;;;;5035865;28;20113;-69
2022/12/20 03:54:42;;;;;;;10.88;7.70;;;8.70;99.90;;;;;;5035481;28;20064;-69
2022/12/20 03:57:07;;;;;;;12.23;7.82;;;8.60;99.90;;;;;;5035530;28;20095;-69
2022/12/20 03:59:34;;;;;;;11.88;8.23;;;8.50;99.90;;;;;;5035160;28;20050;-69
2022/12/20 04:02:00;;;;;;;13.63;8.32;;;8.50;99.90;;;;;;5018337;28;20060;-69
2022/12/20 04:04:26;;;;;;;10.00;7.90;;;8.70;99.90;;;;;;5035318;28;20124;-69
2022/12/20 04:06:51;;;;;;;10.82;8.35;;;8.60;99.90;;;;;;5036036;28;20084;-69
2022/12/20 04:09:17;;;;;;;12.90;8.90;;;8.60;99.90;;;;;;5035294;28;20426;-69
2022/12/20 04:11:43;;;;;;;9.90;7.45;;;8.60;99.90;;;;;;5016976;28;20057;-69
2022/12/20 04:14:08;;;;;;;12.05;8.00;;;8.50;99.90;;;;;;5035765;28;20108;-69
2022/12/20 04:16:34;;;;;;;14.02;7.95;;;8.50;99.90;;;;;;5035006;28;20041;-69
2022/12/20 04:19:00;;;;;;;13.07;8.48;;;8.50;99.90;;;;;;5035603;28;20041;-69
2022/12/20 04:21:31;;;;;;;12.07;7.85;;;8.50;99.90;;;;;;5035397;28;20125;-70
2022/12/20 04:23:58;;;;;;;12.32;7.78;;;8.50;99.90;;;;;;5035145;28;20091;-68
2022/12/20 04:26:24;;;;;;;10.57;8.27;;;8.50;99.90;;;;;;5035359;28;20045;-69
2022/12/20 04:28:49;;;;;;;9.18;7.60;;;8.70;99.90;;;;;;5034704;28;20442;-69
2022/12/20 04:31:15;;;;;;;10.65;8.07;;;8.70;99.90;;;;;;5035076;28;20045;-68
2022/12/20 04:33:41;;;;;;;12.80;8.10;;;8.60;99.90;;;;;;5034801;28;20480;-70
2022/12/20 04:36:08;;;;;;;12.40;8.60;;;8.60;99.90;;;;;;5017577;28;20049;-69
2022/12/20 04:38:33;;;;;;;11.45;8.85;;;8.60;99.90;;;;;;5035803;28;20091;-69
2022/12/20 04:40:59;;;;;;;15.10;8.95;;;8.70;99.90;;;;;;5034905;28;20077;-69
2022/12/20 04:43:25;;;;;;;11.40;8.80;;;8.70;99.90;;;;;;5017697;28;20041;-69
2022/12/20 04:45:52;;;;;;;13.85;8.60;;;8.70;99.90;;;;;;5034580;28;20052;-68
2022/12/20 04:48:19;;;;;;;12.57;9.20;;;8.70;99.90;;;;;;5035141;28;20072;-70
2022/12/20 04:50:48;;;;;;;12.27;8.90;;;8.60;99.90;;;;;;5035160;28;20068;-69
2022/12/20 04:55:59;;;;;;;11.95;9.35;;;8.70;99.90;;;;;;5034715;28;20050;-69
2022/12/20 04:58:25;;;;;;;12.15;9.15;;;8.80;99.90;;;;;;5001221;28;20065;-68
2022/12/20 05:00:51;;;;;;;11.18;9.45;;;9.00;99.90;;;;;;5034498;28;20417;-69
2022/12/20 05:03:18;;;;;;;13.60;9.32;;;8.90;99.90;;;;;;5035202;28;20150;-69
2022/12/20 05:05:44;;;;;;;10.65;8.05;;;8.90;99.90;;;;;;5034747;28;20048;-70
2022/12/20 05:08:10;;;;;;;13.93;8.90;;;9.00;99.90;;;;;;5016767;28;20049;-69
2022/12/20 05:10:36;;;;;;;11.90;8.73;;;8.90;99.90;;;;;;5034469;28;20045;-70
2022/12/20 05:13:01;;;;;;;13.52;9.38;;;8.90;99.90;;;;;;5034498;28;20072;-69
2022/12/20 05:15:28;;;;;;;11.85;8.88;;;9.00;99.90;;;;;;5034545;28;20365;-69
2022/12/20 05:17:58;;;;;;;10.40;8.13;;;9.00;99.90;;;;;;5034692;28;20377;-70
2022/12/20 05:20:28;;;;;;;11.65;8.15;;;9.00;99.90;;;;;;5036034;28;20088;-69
2022/12/20 05:28:28;;;;;;;11.90;8.50;;;9.10;99.90;;;;;;5018486;28;20112;-69
2022/12/20 05:30:54;;;;;;;11.30;6.90;;;9.10;99.90;;;;;;5018680;28;20049;-68
2022/12/20 05:33:20;;;;;;;13.63;7.75;;;9.20;99.90;;;;;;5019014;28;20455;-69
2022/12/20 05:35:45;;;;;;;12.95;7.50;;;9.20;99.90;;;;;;5022312;28;20117;-69
2022/12/20 05:38:11;;;;;;;9.73;7.50;;;9.20;99.90;;;;;;5018407;28;20049;-68
2022/12/20 05:40:38;;;;;;;9.57;7.18;;;9.20;99.90;;;;;;5001184;28;20111;-69
2022/12/20 05:43:05;;;;;;;9.52;7.10;;;9.20;99.90;;;;;;5036680;28;20041;-69
2022/12/20 05:45:31;;;;;;;9.80;6.70;;;9.20;99.90;;;;;;5038156;28;20049;-69
2022/12/20 05:47:56;;;;;;;9.80;6.72;;;9.30;99.90;;;;;;5038298;28;20045;-68
2022/12/20 05:50:22;;;;;;;11.10;6.80;;;9.30;99.90;;;;;;5037587;28;20041;-69
2022/12/20 05:52:47;;;;;;;8.75;6.55;;;9.30;99.90;;;;;;5037915;28;20053;-69
2022/12/20 05:55:13;;;;;;;9.23;6.65;;;9.30;99.90;;;;;;5037792;28;20042;-69
2022/12/20 05:57:39;;;;;;;9.00;6.40;;;9.30;99.90;;;;;;5037118;28;20119;-69
2022/12/20 06:00:05;;;;;;;12.50;6.47;;;9.30;99.90;;;;;;5037874;28;20350;-69
2022/12/20 06:02:31;;;;;;;8.65;6.32;;;9.40;99.90;;;;;;5038068;28;20045;-69
2022/12/20 06:04:57;;;;;;;9.20;7.07;;;9.50;99.90;;;;;;5037445;28;20370;-69
2022/12/20 06:07:24;;;;;;;9.18;6.55;;;9.40;99.90;;;;;;5037788;28;20056;-69
2022/12/20 06:09:50;;;;;;;8.00;5.90;;;9.30;99.90;;;;;;5037603;28;20050;-69
2022/12/20 06:12:16;;;;;;;8.93;6.30;;;9.30;99.90;;;;;;5037601;28;20315;-69
2022/12/20 06:14:41;;;;;;;12.45;6.30;;;9.30;99.90;;;;;;5037076;28;20052;-69
2022/12/20 06:17:07;;;;;;;20.95;6.38;;;9.30;99.90;;;;;;5037421;28;20191;-69
2022/12/20 06:19:33;;;;;;;11.13;6.18;;;9.30;99.90;;;;;;5037093;28;20042;-69
2022/12/20 06:21:59;;;;;;;7.93;6.00;;;9.30;99.90;;;;;;5037545;28;20037;-69
2022/12/20 06:24:26;;;;;;;9.73;5.82;;;9.30;99.90;;;;;;5037058;28;20056;-69
2022/12/20 06:26:52;;;;;;;8.35;5.97;;;9.30;99.90;;;;;;5037987;28;20421;-69
2022/12/20 06:29:19;;;;;;;10.88;6.00;;;9.30;99.90;;;;;;5036853;28;20057;-69
2022/12/20 06:31:45;;;;;;;9.85;6.53;;;9.30;99.90;;;;;;5036476;28;20056;-69
2022/12/20 06:34:12;;;;;;;11.00;6.10;;;9.30;99.90;;;;;;5036791;28;20081;-69
2022/12/20 06:36:37;;;;;;;8.40;5.78;;;9.40;99.90;;;;;;5037153;28;20033;-69
2022/12/20 06:39:03;;;;;;;9.98;6.13;;;9.40;99.90;;;;;;5019960;28;20060;-69
2022/12/20 06:41:28;;;;;;;7.88;5.78;;;9.40;99.90;;;;;;5037212;28;20136;-69
2022/12/20 06:43:54;;;;;;;11.48;6.30;;;9.50;99.90;;;;;;5036439;28;20100;-69
2022/12/20 06:46:20;;;;;;;10.20;5.68;;;9.50;99.90;;;;;;5037145;28;20324;-69
2022/12/20 06:48:45;;;;;;;8.55;5.90;;;9.50;99.90;;;;;;5036925;28;20041;-69
2022/12/20 06:51:11;;;;;;;7.95;6.22;;;9.50;99.90;;;;;;5037145;28;20049;-69
2022/12/20 06:53:37;;;;;;;8.30;6.50;;;9.50;99.90;;;;;;5036726;28;20057;-68
2022/12/20 06:56:03;;;;;;;8.70;7.22;;;9.50;99.90;;;;;;5036798;28;20342;-69
2022/12/20 06:58:28;;;;;;;10.68;8.13;;;9.50;99.90;;;;;;5036211;28;20049;-70
2022/12/20 07:00:54;;;;;;;10.70;8.20;;;9.50;99.90;;;;;;5036463;28;20053;-69
2022/12/20 07:03:20;;;;;;;12.93;8.70;;;9.50;99.90;;;;;;5151366;22;20717;-69
2022/12/20 07:05:52;;;;;;;12.63;9.10;;;9.40;99.90;;;;;;5035637;28;20061;-69
2022/12/20 07:08:18;;;;;;;12.50;9.10;;;9.40;99.90;;;;;;5035803;28;20037;-69
2022/12/20 07:10:43;;;;;;;13.50;9.65;;;9.40;99.90;;;;;;5036657;28;20381;-69
2022/12/20 07:13:09;;;;;;;15.52;10.70;;;9.40;99.90;;;;;;5036630;28;20048;-69
2022/12/20 07:15:35;;;;;;;16.38;11.10;;;9.40;99.90;;;;;;5036087;28;20053;-69
2022/12/20 07:18:00;;;;;;;13.70;11.25;;;9.40;99.90;;;;;;5036527;28;20041;-69
2022/12/20 07:20:26;;;;;;;15.65;11.73;;;9.40;99.90;;;;;;5036858;28;20415;-69
2022/12/20 07:22:52;;;;;;;15.07;11.65;;;9.40;99.90;;;;;;5035907;28;20052;-69
2022/12/20 07:25:18;;;;;;;18.45;12.43;;;9.40;99.90;;;;;;5036465;28;20037;-69
2022/12/20 07:27:47;;;;;;;14.65;11.73;;;9.40;99.90;;;;;;5035439;28;20053;-70
2022/12/20 07:30:13;;;;;;;16.23;11.65;;;9.40;99.90;;;;;;5036330;28;20076;-69
2022/12/20 07:32:39;;;;;;;16.95;12.25;;;9.40;99.90;;;;;;5035966;28;20120;-69
2022/12/20 07:35:05;;;;;;;15.40;11.88;;;9.50;99.90;;;;;;5036232;28;20041;-69
2022/12/20 07:37:31;;;;;;;19.23;13.77;;;9.50;99.90;;;;;;5036230;28;20064;-69
2022/12/20 07:39:56;;;;;;;15.55;13.02;;;9.50;99.90;;;;;;5018575;28;20041;-69
2022/12/20 07:42:22;;;;;;;17.08;12.95;;;9.50;99.90;;;;;;5035016;28;20041;-70
2022/12/20 07:44:48;;;;;;;18.00;12.77;;;9.50;99.90;;;;;;5036177;28;20045;-68
2022/12/20 07:47:13;;;;;;;16.10;12.18;;;9.50;99.90;;;;;;5036038;28;20056;-69
2022/12/20 07:49:39;;;;;;;18.52;13.63;;;9.50;99.90;;;;;;5035640;28;20469;-69
2022/12/20 07:52:07;;;;;;;19.35;13.25;;;9.50;99.90;;;;;;5035837;28;20046;-69
2022/12/20 07:54:47;;;;;;;18.33;13.20;;;9.50;99.90;;;;;;5036338;28;20065;-70
2022/12/20 07:57:33;;;;;;;18.98;13.68;;;9.50;99.90;;;;;;5035087;28;20049;-69
2022/12/20 08:00:00;;;;;;;17.63;13.48;;;9.50;99.90;;;;;;5035492;28;20056;-70
2022/12/20 08:02:31;;;;;;;17.95;13.05;;;9.60;99.90;;;;;;5035282;28;20473;-68
2022/12/20 08:04:57;;;;;;;16.20;12.20;;;9.60;99.90;;;;;;5035384;28;20053;-68
2022/12/20 08:07:23;;;;;;;14.48;12.48;;;9.60;99.90;;;;;;5035333;28;20064;-69
2022/12/20 08:09:50;;;;;;;16.42;11.25;;;9.60;99.90;;;;;;5035687;28;20077;-69
2022/12/20 08:12:17;;;;;;;16.50;11.43;;;9.60;99.90;;;;;;4998572;28;20054;-69
2022/12/20 08:14:43;;;;;;;13.35;11.18;;;9.60;99.90;;;;;;5016086;28;20085;-69
2022/12/20 08:17:10;;;;;;;12.10;10.55;;;9.60;99.90;;;;;;4998414;28;20099;-69
2022/12/20 08:19:37;;;;;;;20.55;11.48;;;9.60;99.90;;;;;;5015748;28;20060;-70
2022/12/20 08:22:03;;;;;;;16.38;10.32;;;9.60;99.90;;;;;;5015616;28;20042;-69
2022/12/20 08:24:29;;;;;;;15.68;10.23;;;9.60;99.90;;;;;;5015259;28;20342;-68
2022/12/20 08:26:55;;;;;;;12.85;9.05;;;9.60;99.90;;;;;;5034175;28;20052;-67
2022/12/20 08:29:20;;;;;;;13.30;9.40;;;9.60;99.90;;;;;;5035216;28;20041;-68
2022/12/20 08:31:46;;;;;;;10.98;8.85;;;9.70;99.90;;;;;;5035236;28;20132;-68
2022/12/20 08:34:12;;;;;;;13.30;10.30;;;9.60;99.90;;;;;;5035034;28;20120;-69
2022/12/20 08:36:37;;;;;;;19.10;9.80;;;9.70;99.90;;;;;;5035196;28;20476;-68
2022/12/20 08:39:05;;;;;;;13.57;10.35;;;9.70;99.90;;;;;;5035154;28;20374;-68
2022/12/20 08:41:32;;;;;;;17.25;13.68;;;9.70;99.90;;;;;;5034868;28;20033;-68
2022/12/20 08:43:58;;;;;;;13.40;11.90;;;9.60;99.90;;;;;;5034743;28;20417;-70
2022/12/20 08:46:24;;;;;;;21.85;17.95;;;9.70;99.90;;;;;;5034976;28;20052;-67
2022/12/20 08:48:49;;;;;;;17.80;9.73;;;9.70;99.90;;;;;;5035157;28;20050;-68
2022/12/20 08:51:15;;;;;;;11.85;7.63;;;9.70;99.90;;;;;;5034659;28;20034;-67
2022/12/20 08:53:40;;;;;;;305.95;36.00;;;9.70;99.90;;;;;;5033869;28;20041;-67
2022/12/20 08:56:14;;;;;;;20.30;14.15;;;9.70;99.90;;;;;;5037855;28;20052;-67
2022/12/20 08:58:41;;;;;;;18.75;12.90;;;9.70;99.90;;;;;;5021546;28;20107;-67
2022/12/20 09:01:10;;;;;;;14.32;9.50;;;9.70;99.90;;;;;;5039088;28;20128;-68
2022/12/20 09:03:37;;;;;;;23.40;11.32;;;9.70;99.90;;;;;;5038504;28;20092;-68
2022/12/20 09:06:08;;;;;;;16.55;7.68;;;9.70;99.90;;;;;;5038735;28;20053;-68
2022/12/20 09:08:35;;;;;;;11.07;8.40;;;9.70;99.90;;;;;;5038743;28;20041;-67
2022/12/20 09:11:12;;;;;;;16.77;11.48;;;9.70;99.90;;;;;;5037911;28;20056;-67
2022/12/20 09:13:42;;;;;;;11.32;8.48;;;9.70;99.90;;;;;;5038541;28;20041;-68
2022/12/20 09:16:08;;;;;;;13.70;10.20;;;9.80;99.90;;;;;;5038539;28;20085;-67
2022/12/20 09:18:34;;;;;;;13.60;12.27;;;9.80;99.90;;;;;;5039120;28;20049;-67
2022/12/20 09:21:01;;;;;;;10.15;8.05;;;9.80;99.90;;;;;;5038055;28;20453;-67
2022/12/20 09:23:27;;;;;;;13.70;12.15;;;9.80;99.90;;;;;;5038601;28;20062;-68
2022/12/20 09:25:54;;;;;;;13.57;7.63;;;9.80;99.90;;;;;;5038436;28;20136;-67
2022/12/20 09:28:20;;;;;;;11.10;6.40;;;9.80;99.90;;;;;;5038169;28;20046;-67
2022/12/20 09:30:46;;;;;;;8.98;7.10;;;9.80;99.90;;;;;;5038431;28;20052;-67
2022/12/20 09:33:11;;;;;;;10.57;6.18;;;9.90;99.90;;;;;;5038665;28;20054;-67
2022/12/20 09:35:44;;;;;;;9.82;6.88;;;10.00;99.90;;;;;;5038377;28;20131;-66
2022/12/20 09:38:10;;;;;;;12.75;5.82;;;10.00;99.90;;;;;;5038205;28;20043;-67
2022/12/20 09:40:37;;;;;;;7.30;5.82;;;10.00;99.90;;;;;;5037709;28;20052;-67
2022/12/20 09:43:04;;;;;;;9.68;7.68;;;10.10;99.90;;;;;;5020885;28;20141;-67
2022/12/20 09:45:35;;;;;;;10.43;6.55;;;10.10;99.90;;;;;;5038109;28;20053;-67
2022/12/20 09:48:01;;;;;;;7.57;6.18;;;10.10;99.90;;;;;;5037860;28;20041;-67
2022/12/20 09:50:50;;;;;;;11.45;6.88;;;10.10;99.90;;;;;;5037898;28;20091;-68
2022/12/20 09:53:45;;;;;;;9.52;6.30;;;10.10;99.90;;;;;;5037250;28;20474;-68
2022/12/20 09:56:26;;;;;;;8.20;5.72;;;10.10;99.90;;;;;;5037005;28;20049;-67
2022/12/20 09:59:05;;;;;;;13.50;9.68;;;10.10;99.90;;;;;;5037745;28;20045;-70
2022/12/20 10:01:35;;;;;;;9.52;6.32;;;10.10;99.90;;;;;;5037787;28;20103;-68
2022/12/20 10:04:04;;;;;;;7.13;5.43;;;10.20;99.90;;;;;;5037770;28;20214;-68
2022/12/20 10:06:41;;;;;;;9.27;6.68;;;10.20;99.90;;;;;;5037009;28;20084;-69
2022/12/20 10:09:43;;;;;;;11.65;7.00;;;10.20;99.90;;;;;;5037210;28;20449;-68
2022/12/20 10:12:27;;;;;;;9.85;5.30;;;10.20;99.90;;;;;;5017774;28;20135;-69
2022/12/20 10:15:26;;;;;;;9.23;7.10;;;10.20;99.90;;;;;;5017569;28;20103;-68
2022/12/20 10:18:23;;;;;;;8.13;5.07;;;10.20;99.90;;;;;;5017663;28;20133;-69
2022/12/20 10:20:52;;;;;;;16.33;6.95;;;10.20;99.90;;;;;;5017702;28;20038;-68
2022/12/20 10:23:38;;;;;;;10.50;6.60;;;10.20;99.90;;;;;;5017763;28;20042;-68
2022/12/20 10:26:12;;;;;;;9.35;5.53;;;10.30;99.90;;;;;;5034162;28;20089;-68
2022/12/20 10:28:39;;;;;;;11.95;7.68;;;10.20;99.90;;;;;;5037203;28;20104;-68
2022/12/20 10:31:17;;;;;;;10.65;6.75;;;10.20;99.90;;;;;;5037305;28;20038;-68
2022/12/20 10:33:44;;;;;;;9.48;7.10;;;10.20;99.90;;;;;;5036907;28;20057;-69
2022/12/20 10:36:20;;;;;;;11.73;6.80;;;10.20;99.90;;;;;;5036853;28;20045;-69
2022/12/20 10:38:51;;;;;;;11.38;5.57;;;10.20;99.90;;;;;;5036982;28;20061;-69
2022/12/20 10:41:19;;;;;;;7.60;5.05;;;10.20;99.90;;;;;;5017072;28;20091;-69
2022/12/20 10:43:50;;;;;;;8.18;6.10;;;10.20;99.90;;;;;;5025019;28;20103;-68
2022/12/20 10:46:15;;;;;;;11.63;7.50;;;10.20;99.90;;;;;;5037191;28;20050;-68
2022/12/20 10:48:45;;;;;;;8.15;6.10;;;10.30;99.90;;;;;;5036678;28;20072;-69
2022/12/20 10:51:13;;;;;;;11.80;7.03;;;10.30;99.90;;;;;;5036537;28;20175;-68
2022/12/20 10:54:00;;;;;;;15.23;7.03;;;10.30;99.90;;;;;;5036876;28;20045;-68
2022/12/20 10:56:31;;;;;;;9.02;6.20;;;10.30;99.90;;;;;;5036780;28;20057;-69
2022/12/20 10:59:15;;;;;;;9.98;6.40;;;10.30;99.90;;;;;;5036244;28;20072;-68
2022/12/20 11:01:42;;;;;;;;;;;10.30;99.90;;;;;;5037595;28;20041;-69
2022/12/20 11:04:31;;;;;;;14.55;7.47;;;10.30;99.90;;;;;;5037195;28;19944;-69
2022/12/20 11:06:59;;;;;;;11.45;7.28;;;10.30;99.90;;;;;;5036444;28;20081;-70
2022/12/20 11:09:29;;;;;;;10.02;7.15;;;10.30;99.90;;;;;;5036333;28;20041;-69
2022/12/20 11:12:10;;;;;;;7.78;6.97;;;10.30;99.90;;;;;;5037030;28;20041;-69
2022/12/20 11:14:37;;;;;;;10.32;6.38;;;10.30;99.90;;;;;;5035713;28;20136;-69
2022/12/20 11:17:34;;;;;;;9.70;6.72;;;10.30;99.90;;;;;;5035617;28;20041;-70
2022/12/20 11:20:07;;;;;;;10.38;6.85;;;10.30;99.90;;;;;;5036482;28;20053;-69
2022/12/20 11:22:44;;;;;;;8.35;5.50;;;10.30;99.90;;;;;;5035800;28;20099;-69
2022/12/20 11:25:45;;;;;;;18.60;15.77;;;10.30;99.90;;;;;;5036309;28;20041;-69
2022/12/20 11:28:24;;;;;;;10.02;7.57;;;10.30;99.90;;;;;;5019099;28;20041;-69
2022/12/20 11:31:08;;;;;;;14.75;12.77;;;10.40;99.90;;;;;;5036334;28;20124;-69
2022/12/20 11:33:59;;;;;;;11.48;7.38;;;10.40;99.90;;;;;;5036230;28;20124;-68
2022/12/20 11:36:34;;;;;;;8.98;6.35;;;10.40;99.90;;;;;;5035923;28;20076;-70
2022/12/20 11:39:03;;;;;;;11.13;6.78;;;10.40;99.90;;;;;;5035448;28;20045;-69
2022/12/20 11:41:42;;;;;;;13.93;7.22;;;10.40;99.90;;;;;;5035692;28;20156;-69
2022/12/20 11:44:45;;;;;;;10.20;7.25;;;10.40;99.90;;;;;;5035748;28;20041;-69
2022/12/20 11:47:42;;;;;;;6.68;4.80;;;10.40;99.90;;;;;;5004712;28;20076;-69
2022/12/20 11:50:51;;;;;;;10.13;5.45;;;10.40;99.90;;;;;;5035844;28;20056;-69
2022/12/20 11:53:35;;;;;;;9.55;5.78;;;10.40;99.90;;;;;;5035053;28;20041;-69
2022/12/20 11:56:04;;;;;;;;;;;10.40;99.90;;;;;;5036047;28;20060;-69
2022/12/20 11:58:45;;;;;;;10.35;8.77;;;10.40;99.90;;;;;;5035687;28;19928;-68
2022/12/20 12:01:17;;;;;;;8.80;5.32;;;10.30;99.90;;;;;;5035346;28;20138;-69
2022/12/20 12:04:09;;;;;;;7.53;5.80;;;10.30;99.90;;;;;;5035056;28;20057;-68
2022/12/20 12:06:55;;;;;;;8.88;6.18;;;10.30;99.90;;;;;;5006789;28;20067;-68
2022/12/20 12:09:24;;;;;;;7.82;5.22;;;10.30;99.90;;;;;;5034714;28;20190;-68
2022/12/20 12:12:09;;;;;;;5.57;4.80;;;10.30;99.90;;;;;;5035441;28;20453;-68
2022/12/20 12:14:43;;;;;;;8.52;5.55;;;10.30;99.90;;;;;;5035022;28;20041;-67
2022/12/20 12:17:17;;;;;;;17.60;7.45;;;10.30;99.90;;;;;;5035862;28;20076;-68
2022/12/20 12:19:48;;;;;;;8.68;6.05;;;10.30;99.90;;;;;;5035296;28;20338;-68
2022/12/20 12:22:27;;;;;;;9.23;6.40;;;10.30;99.90;;;;;;5035056;28;20128;-68
2022/12/20 12:24:59;;;;;;;10.23;7.03;;;10.30;99.90;;;;;;5034942;28;20049;-67
2022/12/20 12:27:26;;;;;;;11.48;7.28;;;10.30;99.90;;;;;;5035281;28;20037;-68
2022/12/20 12:29:55;;;;;;;10.50;5.63;;;10.20;99.90;;;;;;5034936;28;20041;-68
2022/12/20 12:32:54;;;;;;;11.10;7.50;;;10.30;99.90;;;;;;5035221;28;20049;-68
2022/12/20 12:35:49;;;;;;;9.70;8.70;;;10.30;99.90;;;;;;5034940;28;20060;-68
2022/12/20 12:38:31;;;;;;;13.13;8.27;;;10.20;99.90;;;;;;5035106;28;20361;-68
2022/12/20 12:41:02;;;;;;;9.73;7.30;;;10.20;99.90;;;;;;5034667;28;20049;-68
2022/12/20 12:43:40;;;;;;;8.15;7.03;;;10.20;99.90;;;;;;5035441;28;20103;-67
2022/12/20 12:46:17;;;;;;;9.18;7.07;;;10.20;99.90;;;;;;5035270;28;20077;-68
2022/12/20 12:48:57;;;;;;;12.75;7.47;;;10.20;99.90;;;;;;5034454;28;20080;-68
2022/12/20 12:51:35;;;;;;;9.10;7.18;;;10.20;99.90;;;;;;5035218;28;20342;-68
2022/12/20 12:54:22;;;;;;;9.65;7.65;;;10.20;99.90;;;;;;5016928;28;20100;-69
2022/12/20 12:56:49;;;;;;;9.15;7.70;;;10.20;99.90;;;;;;5034774;28;20042;-69
2022/12/20 12:59:23;;;;;;;10.23;8.15;;;10.20;99.90;;;;;;5035004;28;20057;-69
2022/12/20 13:02:14;;;;;;;9.65;7.57;;;10.20;99.90;;;;;;5035167;28;20055;-69
2022/12/20 13:05:05;;;;;;;8.93;6.75;;;10.20;99.90;;;;;;5034487;28;20053;-68
2022/12/20 13:07:34;;;;;;;11.02;7.45;;;10.20;99.90;;;;;;5034893;28;20065;-68
2022/12/20 13:10:08;;;;;;;9.80;7.80;;;10.20;99.90;;;;;;5034407;28;20057;-68
2022/12/20 13:12:37;;;;;;;9.85;7.63;;;10.20;99.90;;;;;;5034593;28;20528;-68
2022/12/20 13:15:20;;;;;;;10.05;7.50;;;10.20;99.90;;;;;;5034401;28;20438;-69
2022/12/20 13:18:16;;;;;;;10.77;9.23;;;10.20;99.90;;;;;;5034835;28;20045;-69